createdAt,value
2023-01-29T00:02:46.692Z,95.75
2023-01-29T00:05:49.597Z,96.36
2023-01-29T00:08:52.505Z,97.27
2023-01-29T00:11:55.474Z,96.85
2023-01-29T00:14:58.225Z,98.01
2023-01-29T00:18:01.061Z,98.04
2023-01-29T00:21:04.204Z,98.16
2023-01-29T00:24:07.357Z,97.18
2023-01-29T00:27:10.372Z,97.16
2023-01-29T00:30:14.670Z,97.75
2023-01-29T00:33:18.120Z,97.67
2023-01-29T00:36:22.531Z,97.33
2023-01-29T00:39:31.489Z,97.01
2023-01-29T00:43:03.685Z,97.00
2023-01-29T00:46:07.905Z,96.70
2023-01-29T00:49:11.284Z,96.31
2023-01-29T00:52:25.924Z,96.62
2023-01-29T00:55:28.931Z,96.80
2023-01-29T00:58:34.457Z,96.52
2023-01-29T01:01:56.212Z,96.39
2023-01-29T01:04:58.967Z,95.37
2023-01-29T01:08:02.286Z,95.91
2023-01-29T01:11:06.509Z,95.53
2023-01-29T01:14:09.492Z,95.48
2023-01-29T01:17:12.337Z,95.56
2023-01-29T01:20:16.263Z,95.65
2023-01-29T01:23:19.916Z,96.28
2023-01-29T01:26:22.837Z,96.02
2023-01-29T01:29:25.483Z,95.60
2023-01-29T01:32:28.774Z,95.08
2023-01-29T01:35:31.438Z,95.68
2023-01-29T01:38:34.513Z,95.65
2023-01-29T01:41:37.140Z,95.55
2023-01-29T01:44:52.015Z,95.63
2023-01-29T01:48:01.613Z,95.52
2023-01-29T01:51:06.713Z,96.11
2023-01-29T01:54:24.201Z,96.24
2023-01-29T01:57:30.914Z,96.34
2023-01-29T02:00:34.502Z,96.66
2023-01-29T02:04:05.216Z,96.06
2023-01-29T02:07:32.663Z,95.40
2023-01-29T02:10:47.190Z,95.62
2023-01-29T02:13:53.720Z,93.06
2023-01-29T02:17:01.985Z,93.78
2023-01-29T02:20:20.902Z,94.74
2023-01-29T02:23:55.676Z,94.86
2023-01-29T02:27:20.039Z,95.46
2023-01-29T02:30:38.180Z,93.92
2023-01-29T02:33:52.990Z,93.47
2023-01-29T02:37:09.554Z,94.07
2023-01-29T02:40:21.533Z,93.37
2023-01-29T02:43:40.875Z,94.53
2023-01-29T02:47:04.154Z,94.24
2023-01-29T02:50:17.626Z,93.66
2023-01-29T02:53:45.977Z,91.42
2023-01-29T02:56:51.468Z,91.17
2023-01-29T03:00:02.411Z,89.88
2023-01-29T03:03:18.129Z,88.84
2023-01-29T03:06:37.005Z,87.68
2023-01-29T03:09:52.861Z,86.55
2023-01-29T03:13:05.591Z,86.95
2023-01-29T03:16:20.558Z,86.33
2023-01-29T03:19:50.973Z,86.10
2023-01-29T03:23:01.383Z,84.57
2023-01-29T03:26:25.197Z,85.40
2023-01-29T03:29:50.692Z,84.37
2023-01-29T03:32:57.198Z,84.05
2023-01-29T03:36:09.108Z,85.15
2023-01-29T03:39:14.073Z,84.92
2023-01-29T03:42:27.258Z,83.45
2023-01-29T03:46:08.450Z,83.83
2023-01-29T03:49:11.064Z,83.65
2023-01-29T03:52:19.465Z,84.02
2023-01-29T03:55:46.777Z,83.81
2023-01-29T03:59:31.135Z,84.02
2023-01-29T04:02:42.865Z,83.76
2023-01-29T04:05:52.166Z,82.81
2023-01-29T04:09:22.199Z,83.63
2023-01-29T04:12:36.256Z,84.13
2023-01-29T04:15:49.769Z,84.00
2023-01-29T04:18:54.843Z,82.79
2023-01-29T04:22:06.599Z,82.91
2023-01-29T04:25:17.440Z,83.24
2023-01-29T04:28:50.673Z,82.60
2023-01-29T04:32:24.092Z,81.55
2023-01-29T04:35:31.523Z,82.51
2023-01-29T04:38:41.533Z,82.88
2023-01-29T04:41:53.141Z,83.42
2023-01-29T04:45:08.211Z,82.66
2023-01-29T04:48:27.110Z,83.80
2023-01-29T04:51:58.903Z,82.26
2023-01-29T04:55:06.007Z,81.79
2023-01-29T04:58:18.459Z,82.27
2023-01-29T05:01:25.827Z,80.94
2023-01-29T05:04:32.821Z,81.81
2023-01-29T05:07:38.358Z,81.91
2023-01-29T05:10:42.577Z,81.75
2023-01-29T05:13:48.376Z,82.28
2023-01-29T05:16:54.160Z,82.34
2023-01-29T05:19:57.342Z,82.50
2023-01-29T05:23:00.207Z,82.88
2023-01-29T05:26:03.981Z,82.28
2023-01-29T05:29:07.217Z,83.47
2023-01-29T05:32:09.977Z,82.80
2023-01-29T05:35:13.479Z,82.02
2023-01-29T05:38:17.423Z,82.65
2023-01-29T05:41:21.158Z,82.48
2023-01-29T05:44:23.820Z,81.43
2023-01-29T05:47:26.704Z,81.45
2023-01-29T05:50:30.299Z,81.09
2023-01-29T05:53:33.859Z,82.18
2023-01-29T05:56:36.532Z,81.61
2023-01-29T05:59:39.632Z,82.34
2023-01-29T06:02:42.358Z,82.20
2023-01-29T06:05:45.336Z,82.68
2023-01-29T06:08:48.305Z,81.41
2023-01-29T06:11:51.656Z,80.96
2023-01-29T06:14:54.443Z,79.91
2023-01-29T06:17:57.692Z,79.97
2023-01-29T06:21:02.657Z,81.00
2023-01-29T06:24:06.207Z,81.55
2023-01-29T06:27:08.848Z,81.43
2023-01-29T06:30:12.428Z,81.11
2023-01-29T06:33:15.321Z,80.93
2023-01-29T06:36:19.259Z,80.45
2023-01-29T06:39:21.892Z,80.63
2023-01-29T06:42:28.101Z,81.78
2023-01-29T06:45:30.952Z,79.98
2023-01-29T06:48:33.923Z,81.42
2023-01-29T06:51:36.918Z,81.82
2023-01-29T06:54:40.050Z,80.98
2023-01-29T06:57:42.728Z,80.54
2023-01-29T07:00:45.922Z,81.49
2023-01-29T07:03:51.346Z,81.67
2023-01-29T07:06:54.319Z,80.23
2023-01-29T07:09:57.300Z,80.89
2023-01-29T07:13:00.292Z,78.16
2023-01-29T07:16:06.619Z,79.96
2023-01-29T07:19:09.489Z,79.78
2023-01-29T07:22:12.129Z,78.78
2023-01-29T07:25:15.150Z,79.80
2023-01-29T07:28:18.649Z,80.19
2023-01-29T07:31:23.087Z,80.03
2023-01-29T07:34:25.866Z,78.60
2023-01-29T07:37:28.905Z,80.16
2023-01-29T07:40:32.772Z,80.99
2023-01-29T07:43:35.991Z,79.12
2023-01-29T07:46:38.621Z,78.03
2023-01-29T07:49:41.739Z,79.33
2023-01-29T07:52:44.642Z,78.49
2023-01-29T07:55:47.604Z,78.51
2023-01-29T07:58:50.268Z,78.71
2023-01-29T08:01:53.246Z,77.72
2023-01-29T08:04:56.199Z,76.77
2023-01-29T08:08:06.603Z,77.16
2023-01-29T08:11:10.628Z,78.31
2023-01-29T08:14:13.280Z,76.30
2023-01-29T08:17:16.262Z,75.78
2023-01-29T08:20:20.072Z,75.64
2023-01-29T08:23:24.278Z,76.15
2023-01-29T08:26:27.433Z,75.75
2023-01-29T08:29:30.302Z,75.56
2023-01-29T08:32:32.951Z,76.32
2023-01-29T08:35:36.653Z,75.51
2023-01-29T08:38:39.614Z,74.85
2023-01-29T08:41:42.458Z,75.83
2023-01-29T08:44:45.026Z,74.23
2023-01-29T08:47:49.979Z,76.21
2023-01-29T08:50:52.849Z,74.42
2023-01-29T08:53:56.025Z,74.46
2023-01-29T08:56:58.656Z,74.03
2023-01-29T09:00:01.750Z,74.59
2023-01-29T09:03:05.118Z,74.43
2023-01-29T09:06:10.805Z,74.37
2023-01-29T09:09:14.607Z,74.25
2023-01-29T09:12:17.485Z,73.55
2023-01-29T09:15:20.270Z,74.21
2023-01-29T09:18:24.645Z,74.27
2023-01-29T09:21:27.288Z,73.13
2023-01-29T09:24:30.624Z,75.24
2023-01-29T09:27:33.428Z,74.67
2023-01-29T09:30:38.214Z,73.41
2023-01-29T09:33:40.950Z,74.07
2023-01-29T09:36:44.147Z,71.31
2023-01-29T09:39:46.993Z,71.83
2023-01-29T09:42:55.821Z,72.52
2023-01-29T09:46:08.093Z,72.65
2023-01-29T09:49:41.774Z,73.99
2023-01-29T09:52:51.929Z,73.72
2023-01-29T09:56:16.113Z,72.52
2023-01-29T09:59:22.469Z,72.42
2023-01-29T10:03:03.234Z,74.18
2023-01-29T10:06:25.777Z,72.29
2023-01-29T10:09:44.423Z,72.09
2023-01-29T10:13:42.717Z,71.43
2023-01-29T10:17:14.784Z,73.28
2023-01-29T10:20:42.209Z,71.76
2023-01-29T10:23:56.501Z,71.77
2023-01-29T10:27:01.108Z,71.18
2023-01-29T10:30:09.574Z,71.70
2023-01-29T10:33:19.380Z,72.08
2023-01-29T10:36:28.768Z,72.75
2023-01-29T10:39:31.823Z,73.39
2023-01-29T10:42:48.497Z,71.79
2023-01-29T10:46:26.596Z,73.51
2023-01-29T10:49:41.281Z,72.16
2023-01-29T10:53:21.193Z,72.08
2023-01-29T10:56:26.834Z,71.69
2023-01-29T11:00:00.043Z,73.24
2023-01-29T11:03:30.880Z,73.54
2023-01-29T11:06:35.756Z,71.72
2023-01-29T11:09:50.402Z,72.41
2023-01-29T11:12:54.421Z,72.95
2023-01-29T11:15:57.244Z,72.24
2023-01-29T11:19:01.677Z,72.00
2023-01-29T11:22:04.556Z,71.37
2023-01-29T11:25:17.845Z,72.54
2023-01-29T11:28:43.064Z,72.49
2023-01-29T11:31:46.145Z,71.07
2023-01-29T11:35:19.507Z,71.22
2023-01-29T11:38:28.529Z,72.81
2023-01-29T11:41:43.847Z,73.57
2023-01-29T11:44:47.372Z,75.14
2023-01-29T11:47:57.006Z,75.79
2023-01-29T11:51:01.425Z,76.31
2023-01-29T11:54:05.711Z,76.26
2023-01-29T11:57:21.111Z,76.57
2023-01-29T12:00:29.878Z,75.42
2023-01-29T12:03:48.616Z,75.38
2023-01-29T12:06:53.601Z,76.22
2023-01-29T12:09:59.735Z,75.86
2023-01-29T12:13:10.827Z,77.05
2023-01-29T12:16:16.846Z,76.49
2023-01-29T12:19:33.402Z,76.85
2023-01-29T12:22:49.999Z,77.99
2023-01-29T12:26:07.592Z,77.94
2023-01-29T12:29:25.648Z,78.35
2023-01-29T12:33:09.027Z,77.66
2023-01-29T12:36:21.752Z,79.62
2023-01-29T12:39:24.372Z,79.64
2023-01-29T12:42:27.831Z,81.47
2023-01-29T12:45:32.955Z,80.51
2023-01-29T12:48:40.092Z,82.02
2023-01-29T12:52:07.838Z,81.72
2023-01-29T12:55:21.779Z,82.11
2023-01-29T12:58:31.376Z,82.41
2023-01-29T13:01:43.076Z,82.29
2023-01-29T13:04:53.907Z,82.18
2023-01-29T13:08:28.873Z,83.08
2023-01-29T13:11:39.673Z,81.57
2023-01-29T13:14:46.456Z,82.36
2023-01-29T13:17:54.826Z,82.75
2023-01-29T13:21:00.199Z,82.61
2023-01-29T13:24:16.367Z,82.24
2023-01-29T13:27:28.631Z,82.18
2023-01-29T13:30:36.504Z,81.91
2023-01-29T13:33:42.097Z,80.39
2023-01-29T13:36:48.036Z,80.66
2023-01-29T13:39:53.266Z,80.89
2023-01-29T13:42:59.938Z,81.12
2023-01-29T13:46:18.503Z,80.73
2023-01-29T13:49:27.993Z,79.85
2023-01-29T13:52:43.303Z,77.94
2023-01-29T13:55:45.893Z,78.49
2023-01-29T13:58:58.406Z,79.20
2023-01-29T14:02:04.071Z,79.59
2023-01-29T14:05:31.081Z,79.13
2023-01-29T14:08:39.354Z,79.15
2023-01-29T14:11:48.620Z,79.97
2023-01-29T14:15:15.106Z,79.28
2023-01-29T14:18:21.220Z,79.42
2023-01-29T14:21:32.677Z,80.86
2023-01-29T14:24:35.641Z,81.08
2023-01-29T14:27:38.434Z,80.06
2023-01-29T14:30:48.246Z,79.38
2023-01-29T14:33:53.190Z,79.23
2023-01-29T14:37:01.402Z,78.89
2023-01-29T14:40:16.655Z,79.13
2023-01-29T14:43:21.075Z,79.74
2023-01-29T14:46:35.891Z,79.89
2023-01-29T14:50:24.129Z,79.52
2023-01-29T14:53:58.764Z,78.74
2023-01-29T14:57:05.977Z,77.96
2023-01-29T15:00:27.016Z,77.78
2023-01-29T15:03:39.725Z,77.13
2023-01-29T15:06:48.287Z,77.94
2023-01-29T15:10:21.949Z,77.57
2023-01-29T15:13:37.394Z,77.98
2023-01-29T15:16:57.530Z,76.79
2023-01-29T15:20:00.459Z,77.39
2023-01-29T15:23:04.846Z,78.53
2023-01-29T15:26:11.710Z,78.34
2023-01-29T15:29:24.815Z,78.30
2023-01-29T15:32:32.429Z,76.71
2023-01-29T15:35:36.981Z,77.15
2023-01-29T15:38:39.653Z,77.45
2023-01-29T15:41:43.876Z,78.34
2023-01-29T15:44:46.823Z,77.89
2023-01-29T15:47:50.886Z,77.88
2023-01-29T15:50:55.392Z,77.78
2023-01-29T15:54:05.780Z,77.68
2023-01-29T15:57:19.249Z,77.72
2023-01-29T16:00:28.728Z,77.95
2023-01-29T16:03:34.478Z,77.56
2023-01-29T16:06:40.488Z,77.73
2023-01-29T16:09:43.898Z,78.09
2023-01-29T16:12:51.548Z,77.79
2023-01-29T16:16:03.090Z,77.93
2023-01-29T16:19:21.548Z,78.99
2023-01-29T16:22:29.089Z,78.98
2023-01-29T16:25:34.070Z,78.53
2023-01-29T16:28:41.959Z,79.09
2023-01-29T16:31:47.363Z,79.09
2023-01-29T16:34:56.305Z,78.71
2023-01-29T16:38:04.661Z,78.99
2023-01-29T16:41:15.435Z,78.85
2023-01-29T16:44:21.260Z,77.46
2023-01-29T16:47:29.604Z,78.77
2023-01-29T16:50:46.197Z,78.94
2023-01-29T16:53:55.576Z,78.53
2023-01-29T16:57:00.464Z,77.27
2023-01-29T17:00:07.673Z,77.35
2023-01-29T17:03:14.771Z,75.74
2023-01-29T17:06:23.656Z,75.19
2023-01-29T17:09:34.002Z,74.88
2023-01-29T17:12:39.128Z,75.32
2023-01-29T17:15:44.997Z,74.78
2023-01-29T17:18:48.235Z,75.89
2023-01-29T17:21:51.371Z,75.83
2023-01-29T17:24:55.612Z,75.19
2023-01-29T17:28:01.593Z,74.75
2023-01-29T17:31:07.855Z,75.60
2023-01-29T17:34:15.211Z,76.31
2023-01-29T17:37:18.470Z,75.15
2023-01-29T17:40:39.559Z,73.75
2023-01-29T17:43:44.258Z,74.19
2023-01-29T17:46:47.811Z,75.10
2023-01-29T17:49:51.112Z,73.28
2023-01-29T17:52:54.204Z,72.60
2023-01-29T17:55:57.455Z,72.93
2023-01-29T17:59:01.006Z,70.23
2023-01-29T18:02:04.690Z,71.45
2023-01-29T18:05:08.439Z,68.35
2023-01-29T18:08:43.727Z,69.94
2023-01-29T18:11:47.725Z,69.59
2023-01-29T18:14:50.557Z,68.36
2023-01-29T18:17:53.794Z,70.22
2023-01-29T18:20:57.064Z,68.69
2023-01-29T18:24:00.239Z,69.46
2023-01-29T18:27:02.832Z,68.13
2023-01-29T18:30:07.218Z,68.03
2023-01-29T18:33:10.165Z,70.40
2023-01-29T18:36:13.722Z,69.75
2023-01-29T18:39:17.187Z,68.46
2023-01-29T18:42:20.092Z,68.82
2023-01-29T18:45:22.963Z,69.91
2023-01-29T18:48:26.703Z,71.70
2023-01-29T18:51:29.583Z,71.53
2023-01-29T18:54:32.756Z,73.09
2023-01-29T18:58:29.513Z,71.25
2023-01-29T19:01:09.104Z,71.47
2023-01-29T19:04:12.369Z,70.95
2023-01-29T19:07:15.765Z,71.17
2023-01-29T19:10:18.851Z,70.82
2023-01-29T19:13:22.665Z,69.02
2023-01-29T19:16:26.048Z,69.72
2023-01-29T19:19:29.482Z,70.23
2023-01-29T19:22:32.724Z,69.89
2023-01-29T19:25:39.347Z,70.55
2023-01-29T19:28:42.309Z,69.75
2023-01-29T19:31:47.142Z,70.33
2023-01-29T19:34:49.955Z,70.87
2023-01-29T19:37:53.092Z,71.77
2023-01-29T19:41:00.096Z,70.41
2023-01-29T19:44:03.469Z,71.50
2023-01-29T19:47:06.373Z,71.88
2023-01-29T19:50:11.088Z,71.42
2023-01-29T19:53:13.844Z,71.04
2023-01-29T19:56:18.726Z,71.06
2023-01-29T19:59:22.267Z,70.99
2023-01-29T20:02:25.325Z,70.43
2023-01-29T20:05:28.705Z,71.16
2023-01-29T20:08:33.144Z,72.62
2023-01-29T20:11:36.451Z,72.08
2023-01-29T20:14:43.262Z,71.73
2023-01-29T20:17:46.264Z,71.73
2023-01-29T20:20:50.729Z,71.87
2023-01-29T20:23:54.663Z,73.57
2023-01-29T20:26:58.457Z,73.17
2023-01-29T20:30:02.284Z,72.12
2023-01-29T20:33:06.617Z,72.62
2023-01-29T20:36:12.675Z,73.28
2023-01-29T20:39:15.841Z,73.93
2023-01-29T20:42:20.056Z,73.67
2023-01-29T20:45:23.313Z,73.46
2023-01-29T20:48:26.774Z,74.30
2023-01-29T20:51:30.864Z,74.19
2023-01-29T20:54:34.583Z,73.62
2023-01-29T20:57:38.726Z,73.48
2023-01-29T21:00:41.983Z,74.21
2023-01-29T21:03:45.536Z,76.10
2023-01-29T21:06:48.900Z,75.55
2023-01-29T21:09:51.800Z,75.51
2023-01-29T21:12:56.033Z,76.15
2023-01-29T21:15:59.250Z,76.13
2023-01-29T21:19:03.381Z,76.30
2023-01-29T21:22:06.308Z,77.81
2023-01-29T21:25:10.018Z,77.05
2023-01-29T21:28:12.990Z,77.63
2023-01-29T21:31:17.063Z,76.82
2023-01-29T21:34:19.994Z,77.22
2023-01-29T21:37:23.210Z,77.06
2023-01-29T21:40:25.902Z,77.38
2023-01-29T21:43:29.356Z,77.34
2023-01-29T21:46:32.042Z,77.88
2023-01-29T21:49:36.452Z,77.87
2023-01-29T21:52:39.155Z,79.09
2023-01-29T21:55:42.153Z,78.01
2023-01-29T21:58:47.458Z,77.97
2023-01-29T22:01:50.652Z,77.36
2023-01-29T22:05:08.694Z,77.36
2023-01-29T22:08:20.609Z,77.92
2023-01-29T22:11:23.807Z,77.40
2023-01-29T22:14:26.357Z,77.85
2023-01-29T22:17:29.173Z,77.57
2023-01-29T22:20:32.109Z,77.95
2023-01-29T22:23:35.008Z,76.95
2023-01-29T22:26:37.881Z,77.29
2023-01-29T22:29:41.283Z,77.15
2023-01-29T22:32:44.039Z,76.96
2023-01-29T22:35:46.945Z,76.67
2023-01-29T22:38:49.567Z,76.85
2023-01-29T22:41:52.573Z,76.96
2023-01-29T22:44:55.363Z,77.32
2023-01-29T22:47:58.563Z,76.37
2023-01-29T22:51:10.573Z,76.27
2023-01-29T22:54:15.499Z,77.02
2023-01-29T22:57:18.552Z,76.53
2023-01-29T23:00:21.890Z,75.38
2023-01-29T23:03:24.575Z,74.80
2023-01-29T23:06:27.467Z,76.08
2023-01-29T23:09:30.198Z,75.20
2023-01-29T23:12:33.220Z,74.58
2023-01-29T23:15:35.980Z,74.14
2023-01-29T23:18:39.320Z,73.93
2023-01-29T23:21:42.117Z,74.05
2023-01-29T23:24:45.036Z,74.75
2023-01-29T23:27:47.686Z,74.40
2023-01-29T23:30:52.192Z,74.75
2023-01-29T23:33:55.053Z,73.74
2023-01-29T23:36:58.541Z,74.35
2023-01-29T23:40:01.259Z,74.13
2023-01-29T23:43:04.170Z,73.74
2023-01-29T23:46:06.776Z,73.39
2023-01-29T23:49:09.858Z,73.43
2023-01-29T23:52:12.445Z,73.60
2023-01-29T23:55:15.581Z,74.19
2023-01-29T23:58:18.145Z,74.51
